createdAt,value
2022-11-05T00:02:14.511Z,7.55
2022-11-05T00:04:59.326Z,8.23
2022-11-05T00:07:47.173Z,9.20
2022-11-05T00:10:17.762Z,12.77
2022-11-05T00:13:02.516Z,9.20
2022-11-05T00:16:03.498Z,7.63
2022-11-05T00:18:34.007Z,7.80
2022-11-05T00:21:01.499Z,7.70
2022-11-05T00:23:46.690Z,7.85
2022-11-05T00:26:14.485Z,7.40
2022-11-05T00:28:43.826Z,8.32
2022-11-05T00:31:13.651Z,7.40
2022-11-05T00:33:42.024Z,7.05
2022-11-05T00:36:10.507Z,7.80
2022-11-05T00:38:39.157Z,7.88
2022-11-05T00:41:06.825Z,7.60
2022-11-05T00:43:51.717Z,7.53
2022-11-05T00:46:20.772Z,6.82
2022-11-05T00:49:05.621Z,8.07
2022-11-05T00:51:33.032Z,7.75
2022-11-05T00:54:00.452Z,7.22
2022-11-05T00:56:27.913Z,6.82
2022-11-05T00:58:56.421Z,7.45
2022-11-05T01:01:25.323Z,7.05
2022-11-05T01:03:52.857Z,7.10
2022-11-05T01:06:20.437Z,7.05
2022-11-05T01:08:48.076Z,7.00
2022-11-05T01:11:33.141Z,6.63
2022-11-05T01:14:01.189Z,6.40
2022-11-05T01:16:30.426Z,6.15
2022-11-05T01:18:57.872Z,6.57
2022-11-05T01:21:25.290Z,6.45
2022-11-05T01:23:52.815Z,6.45
2022-11-05T01:26:20.260Z,6.50
2022-11-05T01:28:51.247Z,6.82
2022-11-05T01:31:18.717Z,7.68
2022-11-05T01:33:47.593Z,7.57
2022-11-05T01:36:15.069Z,7.20
2022-11-05T01:38:42.588Z,8.55
2022-11-05T01:41:10.060Z,7.70
2022-11-05T01:43:46.899Z,7.25
2022-11-05T01:46:14.465Z,7.45
2022-11-05T01:48:42.034Z,7.55
2022-11-05T01:51:12.973Z,7.43
2022-11-05T01:53:43.436Z,8.27
2022-11-05T01:56:13.227Z,8.60
2022-11-05T01:58:42.507Z,7.38
2022-11-05T02:01:10.156Z,8.07
2022-11-05T02:03:37.687Z,8.05
2022-11-05T02:06:09.237Z,7.93
2022-11-05T02:08:43.071Z,7.45
2022-11-05T02:11:12.107Z,8.10
2022-11-05T02:13:39.528Z,7.75
2022-11-05T02:16:10.642Z,7.50
2022-11-05T02:18:42.332Z,8.00
2022-11-05T02:21:29.021Z,7.75
2022-11-05T02:24:11.974Z,7.43
2022-11-05T02:26:53.545Z,7.95
2022-11-05T02:29:30.757Z,7.32
2022-11-05T02:32:02.604Z,7.90
2022-11-05T02:34:36.536Z,6.28
2022-11-05T02:37:06.909Z,6.10
2022-11-05T02:39:39.501Z,6.70
2022-11-05T02:42:12.322Z,6.75
2022-11-05T02:44:43.523Z,6.13
2022-11-05T02:47:18.429Z,6.22
2022-11-05T02:49:49.293Z,6.72
2022-11-05T02:52:17.767Z,6.90
2022-11-05T02:54:47.383Z,6.97
2022-11-05T02:57:14.830Z,6.88
2022-11-05T02:59:42.254Z,6.82
2022-11-05T03:02:09.997Z,6.40
2022-11-05T03:04:38.984Z,7.18
2022-11-05T03:07:25.138Z,6.60
2022-11-05T03:10:07.718Z,6.50
2022-11-05T03:12:40.845Z,7.63
2022-11-05T03:15:15.028Z,6.30
2022-11-05T03:17:45.716Z,8.05
2022-11-05T03:20:18.763Z,6.78
2022-11-05T03:22:48.555Z,6.35
2022-11-05T03:25:18.444Z,6.80
2022-11-05T03:27:47.215Z,6.72
2022-11-05T03:30:15.776Z,6.22
2022-11-05T03:32:45.190Z,6.60
2022-11-05T03:35:15.477Z,6.13
2022-11-05T03:37:45.788Z,6.43
2022-11-05T03:40:13.420Z,6.30
2022-11-05T03:42:43.623Z,6.40
2022-11-05T03:45:12.265Z,6.18
2022-11-05T03:47:41.869Z,6.35
2022-11-05T03:50:13.539Z,6.30
2022-11-05T03:52:45.018Z,6.32
2022-11-05T03:55:13.906Z,5.75
2022-11-05T03:57:42.867Z,5.75
2022-11-05T04:00:11.779Z,5.80
2022-11-05T04:02:39.427Z,5.95
2022-11-05T04:05:07.231Z,6.43
2022-11-05T04:07:52.228Z,6.00
2022-11-05T04:10:46.880Z,6.20
2022-11-05T04:13:26.424Z,5.85
2022-11-05T04:16:11.487Z,5.75
2022-11-05T04:18:38.970Z,5.78
2022-11-05T04:21:24.684Z,5.20
2022-11-05T04:24:10.151Z,5.05
2022-11-05T04:26:40.149Z,4.80
2022-11-05T04:29:25.020Z,4.55
2022-11-05T04:31:52.694Z,4.90
2022-11-05T04:34:22.141Z,4.22
2022-11-05T04:36:49.871Z,5.22
2022-11-05T04:39:17.974Z,4.93
2022-11-05T04:41:47.982Z,4.93
2022-11-05T04:44:15.964Z,5.30
2022-11-05T04:46:43.520Z,5.50
2022-11-05T04:49:10.970Z,6.43
2022-11-05T04:51:38.491Z,7.18
2022-11-05T04:54:06.072Z,7.78
2022-11-05T04:56:33.576Z,7.22
2022-11-05T04:59:02.465Z,7.68
2022-11-05T05:01:29.998Z,8.88
2022-11-05T05:03:57.548Z,9.02
2022-11-05T05:06:25.047Z,8.10
2022-11-05T05:08:52.573Z,8.38
2022-11-05T05:11:21.086Z,6.95
2022-11-05T05:13:49.093Z,8.43
2022-11-05T05:16:21.094Z,8.18
2022-11-05T05:18:48.926Z,7.85
2022-11-05T05:21:34.487Z,8.10
2022-11-05T05:24:01.948Z,8.80
2022-11-05T05:26:29.697Z,8.57
2022-11-05T05:28:57.161Z,8.32
2022-11-05T05:31:25.952Z,8.55
2022-11-05T05:33:54.196Z,8.52
2022-11-05T05:36:21.811Z,9.07
2022-11-05T05:38:49.319Z,7.85
2022-11-05T05:41:17.173Z,8.43
2022-11-05T05:43:44.729Z,8.73
2022-11-05T05:46:13.143Z,7.78
2022-11-05T05:48:42.408Z,8.07
2022-11-05T05:51:10.831Z,10.65
2022-11-05T05:53:38.711Z,11.45
2022-11-05T05:56:06.912Z,11.85
2022-11-05T05:58:35.226Z,11.43
2022-11-05T06:01:03.216Z,12.70
2022-11-05T06:03:30.637Z,12.23
2022-11-05T06:06:03.335Z,13.07
2022-11-05T06:08:31.025Z,12.65
2022-11-05T06:10:58.635Z,12.93
2022-11-05T06:13:26.140Z,13.73
2022-11-05T06:15:53.731Z,13.93
2022-11-05T06:18:21.263Z,14.75
2022-11-05T06:20:48.742Z,14.95
2022-11-05T06:23:17.929Z,13.95
2022-11-05T06:25:45.348Z,13.60
2022-11-05T06:28:12.824Z,14.05
2022-11-05T06:30:40.278Z,13.75
2022-11-05T06:33:07.873Z,13.65
2022-11-05T06:35:35.542Z,14.52
2022-11-05T06:38:03.116Z,13.98
2022-11-05T06:40:31.899Z,14.10
2022-11-05T06:42:59.301Z,15.15
2022-11-05T06:45:26.704Z,14.70
2022-11-05T06:47:57.943Z,15.50
2022-11-05T06:50:25.762Z,16.45
2022-11-05T06:52:56.722Z,16.60
2022-11-05T06:55:24.407Z,15.70
2022-11-05T06:57:53.757Z,15.63
2022-11-05T07:00:21.341Z,16.95
2022-11-05T07:02:48.897Z,15.60
2022-11-05T07:05:17.107Z,17.20
2022-11-05T07:07:45.231Z,15.85
2022-11-05T07:10:13.702Z,16.90
2022-11-05T07:12:41.276Z,15.25
2022-11-05T07:15:11.457Z,15.68
2022-11-05T07:17:41.577Z,18.35
2022-11-05T07:20:10.666Z,15.90
2022-11-05T07:22:38.539Z,16.27
2022-11-05T07:25:06.678Z,16.25
2022-11-05T07:27:38.489Z,15.00
2022-11-05T07:30:07.172Z,16.35
2022-11-05T07:32:39.304Z,15.82
2022-11-05T07:35:07.727Z,15.68
2022-11-05T07:37:42.339Z,16.48
2022-11-05T07:40:10.561Z,15.95
2022-11-05T07:43:30.620Z,18.42
2022-11-05T07:46:12.641Z,16.52
2022-11-05T07:48:42.643Z,16.55
2022-11-05T07:51:10.123Z,16.10
2022-11-05T07:53:41.092Z,16.40
2022-11-05T07:56:12.989Z,18.40
2022-11-05T07:58:40.445Z,15.20
2022-11-05T08:01:13.659Z,17.00
2022-11-05T08:03:42.709Z,15.93
2022-11-05T08:06:10.259Z,16.50
2022-11-05T08:08:37.805Z,15.75
2022-11-05T08:11:05.744Z,15.38
2022-11-05T08:13:33.685Z,15.50
2022-11-05T08:16:02.031Z,16.17
2022-11-05T08:18:32.195Z,16.60
2022-11-05T08:21:01.738Z,17.20
2022-11-05T08:23:29.688Z,15.60
2022-11-05T08:25:57.901Z,15.60
2022-11-05T08:28:26.409Z,16.38
2022-11-05T08:30:55.070Z,17.02
2022-11-05T08:33:23.713Z,17.35
2022-11-05T08:35:51.784Z,15.93
2022-11-05T08:38:20.701Z,16.35
2022-11-05T08:40:54.984Z,15.98
2022-11-05T08:43:23.114Z,15.65
2022-11-05T08:45:51.053Z,15.85
2022-11-05T08:48:25.457Z,14.65
2022-11-05T08:50:53.143Z,15.43
2022-11-05T08:53:22.185Z,14.27
2022-11-05T08:55:51.563Z,14.15
2022-11-05T08:58:20.891Z,13.63
2022-11-05T09:00:49.521Z,13.85
2022-11-05T09:03:20.573Z,14.45
2022-11-05T09:05:48.216Z,13.98
2022-11-05T09:08:18.715Z,12.82
2022-11-05T09:10:48.185Z,11.95
2022-11-05T09:13:19.305Z,11.75
2022-11-05T09:15:48.067Z,12.00
2022-11-05T09:18:15.922Z,11.93
2022-11-05T09:20:43.471Z,11.43
2022-11-05T09:23:12.068Z,9.98
2022-11-05T09:25:39.889Z,10.23
2022-11-05T09:28:16.111Z,10.00
2022-11-05T09:30:44.817Z,11.45
2022-11-05T09:33:12.781Z,10.23
2022-11-05T09:35:41.059Z,10.50
2022-11-05T09:38:09.150Z,10.65
2022-11-05T09:40:38.547Z,12.35
2022-11-05T09:43:06.748Z,11.95
2022-11-05T09:45:37.066Z,11.07
2022-11-05T09:48:08.574Z,10.20
2022-11-05T09:50:38.761Z,10.30
2022-11-05T09:53:06.315Z,10.52
2022-11-05T09:55:35.860Z,10.27
2022-11-05T09:58:05.769Z,9.93
2022-11-05T10:00:33.675Z,9.90
2022-11-05T10:03:05.109Z,10.63
2022-11-05T10:05:33.881Z,10.85
2022-11-05T10:08:04.324Z,10.68
2022-11-05T10:10:40.503Z,10.18
2022-11-05T10:13:13.903Z,11.32
2022-11-05T10:15:43.508Z,9.90
2022-11-05T10:18:14.741Z,10.23
2022-11-05T10:20:43.644Z,10.82
2022-11-05T10:23:12.903Z,10.48
2022-11-05T10:25:43.123Z,10.32
2022-11-05T10:28:12.076Z,10.88
2022-11-05T10:30:39.796Z,11.52
2022-11-05T10:33:07.722Z,10.93
2022-11-05T10:35:41.111Z,11.55
2022-11-05T10:38:13.800Z,12.15
2022-11-05T10:40:44.550Z,11.32
2022-11-05T10:43:14.597Z,12.63
2022-11-05T10:45:47.692Z,13.20
2022-11-05T10:48:25.586Z,13.10
2022-11-05T10:50:54.526Z,11.40
2022-11-05T10:53:23.364Z,11.23
2022-11-05T10:55:51.715Z,10.50
2022-11-05T10:58:23.615Z,13.75
2022-11-05T11:01:08.251Z,11.65
2022-11-05T11:03:38.743Z,10.68
2022-11-05T11:06:16.359Z,10.48
2022-11-05T11:08:45.085Z,10.90
2022-11-05T11:11:14.250Z,11.98
2022-11-05T11:13:50.128Z,10.60
2022-11-05T11:16:21.348Z,10.70
2022-11-05T11:18:53.383Z,10.38
2022-11-05T11:21:23.721Z,9.20
2022-11-05T11:23:58.293Z,9.13
2022-11-05T11:26:27.431Z,8.40
2022-11-05T11:28:57.622Z,11.30
2022-11-05T11:31:26.502Z,10.02
2022-11-05T11:33:58.183Z,9.15
2022-11-05T11:36:33.264Z,11.40
2022-11-05T11:39:02.113Z,11.40
2022-11-05T11:41:32.129Z,12.68
2022-11-05T11:44:02.380Z,11.70
2022-11-05T11:46:32.563Z,10.48
2022-11-05T11:49:01.292Z,10.65
2022-11-05T11:51:36.844Z,9.63
2022-11-05T11:54:05.633Z,9.70
2022-11-05T11:56:43.767Z,8.13
2022-11-05T11:59:40.500Z,8.35
2022-11-05T12:02:25.251Z,9.43
2022-11-05T12:05:13.581Z,8.48
2022-11-05T12:07:49.193Z,7.70
2022-11-05T12:10:25.320Z,9.35
2022-11-05T12:12:59.921Z,8.43
2022-11-05T12:15:33.331Z,7.95
2022-11-05T12:18:02.953Z,7.90
2022-11-05T12:20:58.139Z,9.00
2022-11-05T12:23:33.859Z,8.10
2022-11-05T12:26:06.669Z,7.82
2022-11-05T12:29:11.999Z,7.75
2022-11-05T12:31:34.005Z,8.23
2022-11-05T12:34:06.746Z,6.95
2022-11-05T12:36:40.758Z,7.63
2022-11-05T12:39:19.201Z,6.75
2022-11-05T12:41:51.810Z,7.47
2022-11-05T12:44:28.869Z,7.60
2022-11-05T12:47:12.271Z,11.77
2022-11-05T12:49:46.641Z,8.75
2022-11-05T12:52:30.104Z,8.07
2022-11-05T12:55:01.925Z,8.75
2022-11-05T12:57:30.903Z,9.18
2022-11-05T13:00:03.318Z,8.57
2022-11-05T13:02:34.399Z,8.98
2022-11-05T13:05:02.944Z,7.80
2022-11-05T13:07:33.080Z,7.68
2022-11-05T13:10:04.184Z,8.60
2022-11-05T13:12:32.998Z,8.00
2022-11-05T13:15:02.216Z,6.95
2022-11-05T13:17:30.870Z,6.28
2022-11-05T13:20:00.342Z,6.95
2022-11-05T13:22:34.666Z,8.02
2022-11-05T13:25:05.661Z,8.88
2022-11-05T13:27:44.583Z,6.97
2022-11-05T13:30:14.484Z,6.03
2022-11-05T13:32:43.187Z,5.53
2022-11-05T13:35:15.880Z,5.85
2022-11-05T13:38:02.676Z,6.55
2022-11-05T13:40:36.395Z,6.40
2022-11-05T13:43:15.419Z,6.10
2022-11-05T13:45:52.351Z,6.18
2022-11-05T13:48:37.613Z,5.68
2022-11-05T13:51:10.215Z,5.60
2022-11-05T13:54:00.745Z,6.18
2022-11-05T13:56:46.511Z,5.85
2022-11-05T13:59:32.686Z,5.65
2022-11-05T14:02:02.658Z,5.88
2022-11-05T14:04:33.207Z,5.55
2022-11-05T14:07:07.178Z,6.18
2022-11-05T14:09:36.145Z,5.88
2022-11-05T14:12:06.102Z,6.03
2022-11-05T14:14:58.519Z,5.85
2022-11-05T14:17:32.267Z,6.90
2022-11-05T14:20:22.462Z,7.13
2022-11-05T14:22:50.016Z,6.90
2022-11-05T14:25:35.978Z,6.60
2022-11-05T14:28:25.062Z,5.40
2022-11-05T14:30:53.229Z,5.82
2022-11-05T14:33:33.998Z,5.55
2022-11-05T14:36:19.965Z,6.13
2022-11-05T14:38:48.246Z,5.45
2022-11-05T14:41:16.043Z,6.38
2022-11-05T14:43:48.147Z,5.53
2022-11-05T14:46:17.683Z,6.18
2022-11-05T14:48:48.739Z,6.22
2022-11-05T14:51:37.439Z,5.88
2022-11-05T14:54:06.002Z,5.97
2022-11-05T14:56:43.103Z,6.72
2022-11-05T14:59:28.710Z,6.82
2022-11-05T15:01:59.588Z,6.90
2022-11-05T15:04:28.329Z,6.63
2022-11-05T15:07:26.187Z,6.53
2022-11-05T15:09:56.874Z,10.52
2022-11-05T15:12:26.533Z,7.95
2022-11-05T15:14:58.704Z,6.80
2022-11-05T15:17:30.264Z,6.50
2022-11-05T15:20:01.640Z,6.13
2022-11-05T15:22:31.245Z,6.18
2022-11-05T15:24:59.694Z,6.00
2022-11-05T15:27:42.173Z,10.10
2022-11-05T15:30:17.047Z,5.90
2022-11-05T15:32:46.089Z,6.30
2022-11-05T15:35:21.310Z,7.30
2022-11-05T15:37:53.574Z,6.45
2022-11-05T15:40:26.687Z,6.53
2022-11-05T15:43:12.303Z,6.07
2022-11-05T15:45:40.148Z,6.65
2022-11-05T15:48:20.203Z,6.10
2022-11-05T15:50:47.850Z,6.05
2022-11-05T15:53:44.125Z,6.40
2022-11-05T15:56:10.105Z,6.28
2022-11-05T15:58:39.188Z,6.80
2022-11-05T16:01:06.759Z,6.13
2022-11-05T16:03:36.485Z,7.32
2022-11-05T16:06:04.285Z,7.60
2022-11-05T16:08:31.884Z,6.72
2022-11-05T16:11:00.393Z,7.57
2022-11-05T16:13:32.127Z,6.50
2022-11-05T16:16:00.916Z,6.68
2022-11-05T16:18:31.867Z,6.57
2022-11-05T16:21:08.501Z,23.63
2022-11-05T16:23:44.065Z,25.60
2022-11-05T16:27:01.198Z,13.88
2022-11-05T16:29:23.366Z,10.82
2022-11-05T16:31:51.902Z,8.73
2022-11-05T16:34:25.642Z,8.20
2022-11-05T16:36:56.524Z,7.80
2022-11-05T16:39:24.144Z,6.93
2022-11-05T16:41:54.378Z,8.00
2022-11-05T16:44:21.935Z,9.02
2022-11-05T16:46:50.458Z,11.43
2022-11-05T16:49:18.503Z,11.57
2022-11-05T16:51:46.339Z,10.82
2022-11-05T16:54:17.938Z,10.85
2022-11-05T16:56:47.365Z,10.55
2022-11-05T16:59:15.350Z,8.50
2022-11-05T17:01:44.375Z,9.40
2022-11-05T17:04:13.891Z,9.48
2022-11-05T17:06:41.479Z,10.65
2022-11-05T17:09:09.015Z,10.27
2022-11-05T17:11:38.054Z,7.05
2022-11-05T17:14:05.680Z,7.72
2022-11-05T17:16:33.238Z,5.65
2022-11-05T17:19:00.813Z,6.20
2022-11-05T17:21:29.079Z,8.38
2022-11-05T17:23:56.651Z,9.45
2022-11-05T17:26:24.488Z,8.85
2022-11-05T17:28:53.407Z,8.52
2022-11-05T17:31:21.030Z,8.70
2022-11-05T17:33:50.456Z,11.00
2022-11-05T17:36:18.008Z,12.45
2022-11-05T17:38:45.590Z,20.48
2022-11-05T17:41:13.841Z,20.25
2022-11-05T17:43:41.605Z,14.10
2022-11-05T17:46:11.668Z,12.73
2022-11-05T17:48:39.800Z,10.65
2022-11-05T17:51:09.624Z,11.13
2022-11-05T17:53:37.485Z,8.73
2022-11-05T17:56:08.839Z,8.32
2022-11-05T17:58:36.455Z,7.53
2022-11-05T18:01:04.415Z,7.47
2022-11-05T18:03:33.932Z,8.18
2022-11-05T18:06:02.345Z,7.60
2022-11-05T18:08:30.248Z,8.35
2022-11-05T18:10:57.922Z,8.18
2022-11-05T18:13:25.518Z,8.27
2022-11-05T18:15:53.659Z,9.18
2022-11-05T18:18:21.438Z,11.80
2022-11-05T18:20:51.842Z,11.15
2022-11-05T18:23:19.736Z,12.00
2022-11-05T18:25:47.370Z,12.25
2022-11-05T18:28:15.081Z,11.20
2022-11-05T18:30:42.833Z,11.18
2022-11-05T18:33:10.746Z,9.02
2022-11-05T18:35:41.407Z,11.57
2022-11-05T18:38:10.403Z,12.38
2022-11-05T18:40:38.303Z,12.68
2022-11-05T18:43:05.900Z,10.25
2022-11-05T18:45:33.476Z,10.05
2022-11-05T18:48:01.518Z,10.77
2022-11-05T18:50:29.652Z,12.25
2022-11-05T18:52:57.227Z,12.23
2022-11-05T18:55:26.279Z,11.68
2022-11-05T18:57:55.890Z,12.27
2022-11-05T19:00:23.696Z,12.55
2022-11-05T19:02:51.401Z,12.43
2022-11-05T19:05:34.478Z,12.82
2022-11-05T19:08:02.114Z,11.73
2022-11-05T19:10:31.204Z,11.90
2022-11-05T19:12:58.920Z,10.70
2022-11-05T19:15:26.604Z,11.48
2022-11-05T19:17:54.214Z,9.13
2022-11-05T19:20:22.215Z,9.93
2022-11-05T19:22:50.180Z,8.50
2022-11-05T19:25:17.798Z,8.57
2022-11-05T19:27:47.078Z,8.87
2022-11-05T19:30:14.718Z,8.90
2022-11-05T19:32:42.340Z,10.65
2022-11-05T19:35:10.159Z,11.82
2022-11-05T19:37:37.849Z,10.80
2022-11-05T19:40:05.890Z,10.57
2022-11-05T19:42:33.448Z,10.90
2022-11-05T19:45:22.955Z,9.83
2022-11-05T19:47:49.983Z,9.23
2022-11-05T19:50:17.706Z,9.30
2022-11-05T19:52:48.293Z,10.43
2022-11-05T19:55:16.136Z,11.48
2022-11-05T19:57:44.890Z,15.15
2022-11-05T20:00:15.292Z,17.80
2022-11-05T20:02:46.433Z,14.30
2022-11-05T20:05:14.882Z,13.18
2022-11-05T20:07:43.601Z,12.63
2022-11-05T20:10:12.519Z,11.67
2022-11-05T20:12:40.057Z,11.73
2022-11-05T20:15:08.168Z,12.47
2022-11-05T20:17:39.256Z,12.30
2022-11-05T20:20:07.541Z,11.23
2022-11-05T20:22:35.085Z,13.05
2022-11-05T20:25:02.753Z,10.13
2022-11-05T20:27:30.362Z,10.73
2022-11-05T20:29:57.876Z,12.00
2022-11-05T20:32:25.520Z,11.37
2022-11-05T20:34:54.755Z,11.10
2022-11-05T20:37:22.338Z,11.83
2022-11-05T20:39:49.887Z,12.53
2022-11-05T20:42:17.854Z,11.50
2022-11-05T20:44:45.574Z,11.00
2022-11-05T20:47:13.193Z,11.33
2022-11-05T20:49:40.931Z,10.63
2022-11-05T20:52:09.849Z,11.40
2022-11-05T20:54:37.790Z,17.07
2022-11-05T20:57:05.504Z,20.17
2022-11-05T20:59:33.047Z,19.23
2022-11-05T21:02:00.708Z,19.57
2022-11-05T21:04:28.322Z,18.33
2022-11-05T21:06:55.961Z,18.97
2022-11-05T21:09:24.929Z,18.53
2022-11-05T21:12:10.077Z,21.27
2022-11-05T21:14:37.960Z,19.87
2022-11-05T21:17:05.940Z,21.70
2022-11-05T21:19:33.938Z,19.27
2022-11-05T21:22:02.012Z,19.63
2022-11-05T21:24:30.915Z,18.17
2022-11-05T21:26:58.529Z,16.98
2022-11-05T21:29:26.099Z,17.65
2022-11-05T21:31:53.733Z,19.53
2022-11-05T21:34:21.488Z,18.40
2022-11-05T21:36:50.315Z,17.27
2022-11-05T21:39:18.319Z,16.47
2022-11-05T21:41:47.488Z,16.93
2022-11-05T21:44:15.036Z,16.33
2022-11-05T21:46:42.931Z,16.40
2022-11-05T21:49:10.548Z,16.37
2022-11-05T21:51:55.332Z,17.88
2022-11-05T21:54:40.579Z,17.55
2022-11-05T21:57:31.816Z,16.90
2022-11-05T22:00:00.663Z,14.27
2022-11-05T22:02:29.509Z,16.10
2022-11-05T22:05:00.057Z,16.25
2022-11-05T22:07:28.548Z,17.03
2022-11-05T22:09:56.367Z,19.63
2022-11-05T22:12:26.883Z,19.88
2022-11-05T22:14:54.733Z,18.20
2022-11-05T22:17:22.375Z,15.98
2022-11-05T22:19:50.178Z,18.10
2022-11-05T22:22:18.044Z,17.50
2022-11-05T22:24:45.861Z,17.10
2022-11-05T22:27:14.971Z,16.90
2022-11-05T22:29:44.397Z,18.10
2022-11-05T22:32:12.506Z,18.65
2022-11-05T22:34:40.093Z,18.33
2022-11-05T22:37:07.926Z,17.70
2022-11-05T22:39:35.674Z,18.73
2022-11-05T22:42:08.339Z,19.43
2022-11-05T22:44:36.492Z,18.42
2022-11-05T22:47:05.713Z,20.05
2022-11-05T22:49:33.423Z,20.52
2022-11-05T22:52:00.982Z,20.53
2022-11-05T22:54:28.571Z,22.10
2022-11-05T22:56:56.242Z,20.42
2022-11-05T22:59:23.987Z,21.08
2022-11-05T23:01:51.689Z,21.30
2022-11-05T23:04:20.840Z,23.57
2022-11-05T23:07:06.003Z,20.73
2022-11-05T23:09:51.995Z,21.37
2022-11-05T23:12:20.991Z,20.37
2022-11-05T23:14:48.925Z,19.87
2022-11-05T23:17:34.003Z,20.40
2022-11-05T23:20:20.670Z,19.60
2022-11-05T23:23:05.470Z,20.73
2022-11-05T23:25:36.118Z,19.20
2022-11-05T23:28:06.377Z,19.13
2022-11-05T23:30:34.256Z,17.10
2022-11-05T23:33:00.977Z,16.90
2022-11-05T23:35:47.321Z,17.73
2022-11-05T23:38:32.404Z,19.30
2022-11-05T23:41:18.827Z,16.77
2022-11-05T23:44:03.597Z,16.23
2022-11-05T23:46:48.861Z,18.40
2022-11-05T23:49:16.491Z,16.33
2022-11-05T23:51:45.491Z,16.10
2022-11-05T23:54:13.090Z,16.50
2022-11-05T23:56:40.628Z,16.57
2022-11-05T23:59:08.202Z,15.00
